sensor_id;sensor_type;location;lat;lon;timestamp;pressure;altitude;pressure_sealevel;temperature;humidity
35551;BME280;21655;46.056;13.616;2022-10-31T00:00:40;101065.31;;;12.22;100.00
35551;BME280;21655;46.056;13.616;2022-10-31T00:03:05;101056.63;;;12.09;100.00
35551;BME280;21655;46.056;13.616;2022-10-31T00:05:31;101060.25;;;12.18;100.00
35551;BME280;21655;46.056;13.616;2022-10-31T00:07:56;101068.44;;;12.19;100.00
35551;BME280;21655;46.056;13.616;2022-10-31T00:10:21;101062.19;;;12.17;100.00
35551;BME280;21655;46.056;13.616;2022-10-31T00:12:47;101056.44;;;12.11;100.00
35551;BME280;21655;46.056;13.616;2022-10-31T00:15:12;101064.44;;;12.14;100.00
35551;BME280;21655;46.056;13.616;2022-10-31T00:17:38;101065.50;;;12.13;100.00
35551;BME280;21655;46.056;13.616;2022-10-31T00:20:03;101063.75;;;12.04;100.00
35551;BME280;21655;46.056;13.616;2022-10-31T00:22:29;101062.19;;;12.09;100.00
35551;BME280;21655;46.056;13.616;2022-10-31T00:24:54;101063.91;;;12.10;100.00
35551;BME280;21655;46.056;13.616;2022-10-31T00:27:19;101058.69;;;12.07;100.00
35551;BME280;21655;46.056;13.616;2022-10-31T00:29:45;101061.69;;;12.06;100.00
35551;BME280;21655;46.056;13.616;2022-10-31T00:32:10;101066.72;;;12.18;100.00
35551;BME280;21655;46.056;13.616;2022-10-31T00:34:35;101068.25;;;12.13;100.00
35551;BME280;21655;46.056;13.616;2022-10-31T00:37:01;101055.94;;;11.99;100.00
35551;BME280;21655;46.056;13.616;2022-10-31T00:39:26;101058.72;;;11.99;100.00
35551;BME280;21655;46.056;13.616;2022-10-31T00:41:51;101061.31;;;12.01;100.00
35551;BME280;21655;46.056;13.616;2022-10-31T00:44:17;101063.22;;;12.08;100.00
35551;BME280;21655;46.056;13.616;2022-10-31T00:46:42;101063.03;;;12.18;100.00
35551;BME280;21655;46.056;13.616;2022-10-31T00:49:08;101066.88;;;12.25;100.00
35551;BME280;21655;46.056;13.616;2022-10-31T00:51:33;101060.97;;;12.12;100.00
35551;BME280;21655;46.056;13.616;2022-10-31T00:53:58;101057.84;;;12.07;100.00
35551;BME280;21655;46.056;13.616;2022-10-31T00:56:24;101061.69;;;12.06;100.00
35551;BME280;21655;46.056;13.616;2022-10-31T00:58:49;101060.97;;;12.04;100.00
35551;BME280;21655;46.056;13.616;2022-10-31T01:01:15;101058.38;;;12.02;100.00
35551;BME280;21655;46.056;13.616;2022-10-31T01:03:40;101056.28;;;12.04;100.00
35551;BME280;21655;46.056;13.616;2022-10-31T01:06:08;101066.00;;;12.08;100.00
35551;BME280;21655;46.056;13.616;2022-10-31T01:08:35;101049.50;;;12.07;100.00
35551;BME280;21655;46.056;13.616;2022-10-31T01:11:09;101059.56;;;12.00;100.00
35551;BME280;21655;46.056;13.616;2022-10-31T01:13:35;101052.81;;;11.94;100.00
35551;BME280;21655;46.056;13.616;2022-10-31T01:16:02;101052.28;;;11.91;100.00
35551;BME280;21655;46.056;13.616;2022-10-31T01:18:28;101050.50;;;11.82;100.00
35551;BME280;21655;46.056;13.616;2022-10-31T01:21:17;101055.91;;;11.83;100.00
35551;BME280;21655;46.056;13.616;2022-10-31T01:23:43;101047.94;;;11.80;100.00
35551;BME280;21655;46.056;13.616;2022-10-31T01:26:21;101051.75;;;11.87;100.00
35551;BME280;21655;46.056;13.616;2022-10-31T01:28:47;101047.56;;;11.83;100.00
35551;BME280;21655;46.056;13.616;2022-10-31T01:31:13;101038.56;;;11.81;100.00
35551;BME280;21655;46.056;13.616;2022-10-31T01:33:39;101047.75;;;11.82;100.00
35551;BME280;21655;46.056;13.616;2022-10-31T01:36:20;101040.44;;;11.81;100.00
35551;BME280;21655;46.056;13.616;2022-10-31T01:38:46;101039.25;;;11.83;100.00
35551;BME280;21655;46.056;13.616;2022-10-31T01:41:15;101042.19;;;11.82;100.00
35551;BME280;21655;46.056;13.616;2022-10-31T01:43:46;101043.72;;;11.76;100.00
35551;BME280;21655;46.056;13.616;2022-10-31T01:46:12;101045.66;;;11.76;100.00
35551;BME280;21655;46.056;13.616;2022-10-31T01:48:39;101039.75;;;11.71;100.00
35551;BME280;21655;46.056;13.616;2022-10-31T01:51:05;101048.44;;;11.76;100.00
35551;BME280;21655;46.056;13.616;2022-10-31T01:53:32;101044.97;;;11.74;100.00
35551;BME280;21655;46.056;13.616;2022-10-31T01:55:59;101042.38;;;11.80;100.00
35551;BME280;21655;46.056;13.616;2022-10-31T01:58:27;101041.16;;;11.75;100.00
35551;BME280;21655;46.056;13.616;2022-10-31T02:00:59;101042.88;;;11.84;100.00
35551;BME280;21655;46.056;13.616;2022-10-31T02:03:25;101041.50;;;11.72;100.00
35551;BME280;21655;46.056;13.616;2022-10-31T02:05:53;101039.38;;;11.66;100.00
35551;BME280;21655;46.056;13.616;2022-10-31T02:08:33;101041.81;;;11.69;100.00
35551;BME280;21655;46.056;13.616;2022-10-31T02:11:00;101036.59;;;11.66;100.00
35551;BME280;21655;46.056;13.616;2022-10-31T02:13:28;101032.28;;;11.63;100.00
35551;BME280;21655;46.056;13.616;2022-10-31T02:15:56;101034.88;;;11.65;100.00
35551;BME280;21655;46.056;13.616;2022-10-31T02:18:24;101035.91;;;11.56;100.00
35551;BME280;21655;46.056;13.616;2022-10-31T02:21:11;101035.22;;;11.62;100.00
35551;BME280;21655;46.056;13.616;2022-10-31T02:24:00;101033.13;;;11.56;100.00
35551;BME280;21655;46.056;13.616;2022-10-31T02:26:56;101020.13;;;11.64;100.00
35551;BME280;21655;46.056;13.616;2022-10-31T02:37:46;101029.66;;;11.62;100.00
35551;BME280;21655;46.056;13.616;2022-10-31T02:40:21;101038.44;;;11.49;100.00
35551;BME280;21655;46.056;13.616;2022-10-31T02:45:26;101027.66;;;11.38;100.00
35551;BME280;21655;46.056;13.616;2022-10-31T02:47:57;101033.53;;;11.35;100.00
35551;BME280;21655;46.056;13.616;2022-10-31T02:50:33;101026.25;;;11.34;100.00
35551;BME280;21655;46.056;13.616;2022-10-31T02:53:00;101033.41;;;11.37;100.00
35551;BME280;21655;46.056;13.616;2022-10-31T02:57:57;101033.22;;;11.38;100.00
35551;BME280;21655;46.056;13.616;2022-10-31T03:00:24;101026.97;;;11.44;100.00
35551;BME280;21655;46.056;13.616;2022-10-31T03:03:21;101037.38;;;11.34;100.00
35551;BME280;21655;46.056;13.616;2022-10-31T03:06:00;101034.75;;;11.33;100.00
35551;BME280;21655;46.056;13.616;2022-10-31T03:11:07;101038.00;;;11.20;100.00
35551;BME280;21655;46.056;13.616;2022-10-31T03:19:38;101036.13;;;11.21;100.00
35551;BME280;21655;46.056;13.616;2022-10-31T03:22:06;101041.13;;;11.18;100.00
35551;BME280;21655;46.056;13.616;2022-10-31T03:24:36;101040.56;;;11.06;100.00
35551;BME280;21655;46.056;13.616;2022-10-31T03:27:05;101039.19;;;11.10;100.00
35551;BME280;21655;46.056;13.616;2022-10-31T03:29:35;101048.22;;;11.12;100.00
35551;BME280;21655;46.056;13.616;2022-10-31T03:34:30;101045.97;;;11.16;100.00
35551;BME280;21655;46.056;13.616;2022-10-31T03:37:00;101053.09;;;11.18;100.00
35551;BME280;21655;46.056;13.616;2022-10-31T03:39:27;101045.97;;;11.16;100.00
35551;BME280;21655;46.056;13.616;2022-10-31T03:42:24;101043.22;;;11.23;100.00
35551;BME280;21655;46.056;13.616;2022-10-31T03:44:56;101044.81;;;11.26;100.00
35551;BME280;21655;46.056;13.616;2022-10-31T03:47:23;101043.41;;;11.22;100.00
35551;BME280;21655;46.056;13.616;2022-10-31T03:49:49;101046.19;;;11.22;100.00
35551;BME280;21655;46.056;13.616;2022-10-31T03:55:09;101046.47;;;11.11;100.00
35551;BME280;21655;46.056;13.616;2022-10-31T03:57:37;101052.69;;;11.05;100.00
35551;BME280;21655;46.056;13.616;2022-10-31T04:00:08;101046.81;;;11.08;100.00
35551;BME280;21655;46.056;13.616;2022-10-31T04:02:38;101052.19;;;11.10;100.00
35551;BME280;21655;46.056;13.616;2022-10-31T04:05:06;101048.56;;;11.09;100.00
35551;BME280;21655;46.056;13.616;2022-10-31T04:07:36;101054.03;;;11.01;100.00
35551;BME280;21655;46.056;13.616;2022-10-31T04:10:07;101060.00;;;11.06;100.00
35551;BME280;21655;46.056;13.616;2022-10-31T04:12:34;101054.78;;;11.11;100.00
35551;BME280;21655;46.056;13.616;2022-10-31T04:15:02;101050.28;;;11.10;100.00
35551;BME280;21655;46.056;13.616;2022-10-31T04:17:31;101048.56;;;11.09;100.00
35551;BME280;21655;46.056;13.616;2022-10-31T04:20:01;101054.78;;;11.11;100.00
35551;BME280;21655;46.056;13.616;2022-10-31T04:22:26;101054.25;;;11.08;100.00
35551;BME280;21655;46.056;13.616;2022-10-31T04:24:52;101061.19;;;11.04;100.00
35551;BME280;21655;46.056;13.616;2022-10-31T04:27:17;101062.00;;;10.96;100.00
35551;BME280;21655;46.056;13.616;2022-10-31T04:29:43;101061.16;;;10.96;100.00
35551;BME280;21655;46.056;13.616;2022-10-31T04:32:08;101054.16;;;10.84;100.00
35551;BME280;21655;46.056;13.616;2022-10-31T04:34:33;101061.91;;;10.80;100.00
35551;BME280;21655;46.056;13.616;2022-10-31T04:36:59;101057.78;;;10.84;100.00
35551;BME280;21655;46.056;13.616;2022-10-31T04:39:24;101066.97;;;10.85;100.00
35551;BME280;21655;46.056;13.616;2022-10-31T04:41:50;101057.78;;;10.84;100.00
35551;BME280;21655;46.056;13.616;2022-10-31T04:44:15;101068.16;;;10.82;100.00
35551;BME280;21655;46.056;13.616;2022-10-31T04:46:41;101056.75;;;10.85;100.00
35551;BME280;21655;46.056;13.616;2022-10-31T04:49:06;101051.53;;;10.82;100.00
35551;BME280;21655;46.056;13.616;2022-10-31T04:51:32;101058.16;;;10.89;100.00
35551;BME280;21655;46.056;13.616;2022-10-31T04:53:57;101070.47;;;10.87;100.00
35551;BME280;21655;46.056;13.616;2022-10-31T04:56:22;101052.94;;;10.86;100.00
35551;BME280;21655;46.056;13.616;2022-10-31T04:58:48;101066.63;;;10.80;100.00
35551;BME280;21655;46.056;13.616;2022-10-31T05:01:13;101053.22;;;10.75;100.00
35551;BME280;21655;46.056;13.616;2022-10-31T05:03:39;101061.88;;;10.72;100.00
35551;BME280;21655;46.056;13.616;2022-10-31T05:06:05;101069.69;;;10.77;100.00
35551;BME280;21655;46.056;13.616;2022-10-31T05:08:31;101062.94;;;10.71;100.00
35551;BME280;21655;46.056;13.616;2022-10-31T05:11:03;101064.47;;;10.74;100.00
35551;BME280;21655;46.056;13.616;2022-10-31T05:13:29;101064.31;;;10.75;100.00
35551;BME280;21655;46.056;13.616;2022-10-31T05:15:54;101059.28;;;10.79;100.00
35551;BME280;21655;46.056;13.616;2022-10-31T05:18:20;101070.94;;;10.82;100.00
35551;BME280;21655;46.056;13.616;2022-10-31T05:20:46;101060.66;;;10.75;100.00
35551;BME280;21655;46.056;13.616;2022-10-31T05:23:11;101059.63;;;10.76;100.00
35551;BME280;21655;46.056;13.616;2022-10-31T05:25:37;101061.22;;;10.78;100.00
35551;BME280;21655;46.056;13.616;2022-10-31T05:28:02;101065.41;;;10.82;100.00
35551;BME280;21655;46.056;13.616;2022-10-31T05:30:30;101062.97;;;10.79;100.00
35551;BME280;21655;46.056;13.616;2022-10-31T05:32:56;101063.66;;;10.81;100.00
35551;BME280;21655;46.056;13.616;2022-10-31T05:35:24;101065.03;;;10.77;100.00
35551;BME280;21655;46.056;13.616;2022-10-31T05:37:50;101058.50;;;10.61;100.00
35551;BME280;21655;46.056;13.616;2022-10-31T05:40:17;101060.31;;;10.70;100.00
35551;BME280;21655;46.056;13.616;2022-10-31T05:42:43;101067.47;;;10.80;100.00
35551;BME280;21655;46.056;13.616;2022-10-31T05:45:10;101059.38;;;10.87;100.00
35551;BME280;21655;46.056;13.616;2022-10-31T05:47:36;101059.50;;;10.85;100.00
35551;BME280;21655;46.056;13.616;2022-10-31T05:50:02;101056.38;;;10.80;100.00
35551;BME280;21655;46.056;13.616;2022-10-31T05:52:28;101060.53;;;10.84;100.00
35551;BME280;21655;46.056;13.616;2022-10-31T05:54:53;101063.19;;;10.94;100.00
35551;BME280;21655;46.056;13.616;2022-10-31T05:57:19;101063.41;;;11.00;100.00
35551;BME280;21655;46.056;13.616;2022-10-31T05:59:44;101064.09;;;11.02;100.00
35551;BME280;21655;46.056;13.616;2022-10-31T06:02:09;101066.25;;;11.08;100.00
35551;BME280;21655;46.056;13.616;2022-10-31T06:04:35;101069.72;;;11.10;100.00
35551;BME280;21655;46.056;13.616;2022-10-31T06:07:00;101072.69;;;11.17;100.00
35551;BME280;21655;46.056;13.616;2022-10-31T06:09:26;101070.78;;;11.17;100.00
35551;BME280;21655;46.056;13.616;2022-10-31T06:11:51;101077.75;;;11.21;100.00
35551;BME280;21655;46.056;13.616;2022-10-31T06:14:16;101081.72;;;11.18;100.00
35551;BME280;21655;46.056;13.616;2022-10-31T06:16:42;101085.41;;;11.27;100.00
35551;BME280;21655;46.056;13.616;2022-10-31T06:19:07;101089.63;;;11.39;100.00
35551;BME280;21655;46.056;13.616;2022-10-31T06:21:32;101081.84;;;11.50;100.00
35551;BME280;21655;46.056;13.616;2022-10-31T06:23:58;101086.25;;;11.61;100.00
35551;BME280;21655;46.056;13.616;2022-10-31T06:26:23;101088.69;;;11.64;100.00
35551;BME280;21655;46.056;13.616;2022-10-31T06:28:49;101081.88;;;11.58;100.00
35551;BME280;21655;46.056;13.616;2022-10-31T06:31:14;101086.94;;;11.63;100.00
35551;BME280;21655;46.056;13.616;2022-10-31T06:33:43;101089.41;;;11.74;100.00
35551;BME280;21655;46.056;13.616;2022-10-31T06:36:39;101095.69;;;11.92;100.00
35551;BME280;21655;46.056;13.616;2022-10-31T06:39:04;101096.78;;;12.07;100.00
35551;BME280;21655;46.056;13.616;2022-10-31T06:41:30;101094.84;;;11.99;100.00
35551;BME280;21655;46.056;13.616;2022-10-31T06:43:55;101108.56;;;12.17;100.00
35551;BME280;21655;46.056;13.616;2022-10-31T06:46:21;101106.34;;;12.36;100.00
35551;BME280;21655;46.056;13.616;2022-10-31T06:48:46;101097.47;;;12.57;100.00
35551;BME280;21655;46.056;13.616;2022-10-31T06:51:11;101107.69;;;12.72;100.00
35551;BME280;21655;46.056;13.616;2022-10-31T06:53:37;101111.00;;;12.76;100.00
35551;BME280;21655;46.056;13.616;2022-10-31T06:56:02;101108.81;;;14.47;100.00
35551;BME280;21655;46.056;13.616;2022-10-31T06:58:27;101089.81;;;17.27;100.00
35551;BME280;21655;46.056;13.616;2022-10-31T07:00:53;101080.91;;;19.23;100.00
35551;BME280;21655;46.056;13.616;2022-10-31T07:03:18;101091.94;;;21.24;100.00
35551;BME280;21655;46.056;13.616;2022-10-31T07:05:45;101093.00;;;21.05;100.00
35551;BME280;21655;46.056;13.616;2022-10-31T07:08:12;101092.63;;;21.44;100.00
35551;BME280;21655;46.056;13.616;2022-10-31T07:10:40;101081.59;;;22.62;100.00
35551;BME280;21655;46.056;13.616;2022-10-31T07:13:10;101086.00;;;23.10;98.66
35551;BME280;21655;46.056;13.616;2022-10-31T07:15:38;101087.25;;;21.97;100.00
35551;BME280;21655;46.056;13.616;2022-10-31T07:18:06;101088.13;;;23.38;95.48
35551;BME280;21655;46.056;13.616;2022-10-31T07:20:32;101083.72;;;25.27;81.11
35551;BME280;21655;46.056;13.616;2022-10-31T07:22:58;101089.19;;;25.01;76.15
35551;BME280;21655;46.056;13.616;2022-10-31T07:25:24;101089.41;;;25.27;73.66
35551;BME280;21655;46.056;13.616;2022-10-31T07:27:50;101098.09;;;25.92;70.51
35551;BME280;21655;46.056;13.616;2022-10-31T07:30:16;101080.88;;;27.16;64.51
35551;BME280;21655;46.056;13.616;2022-10-31T07:32:49;101085.09;;;28.27;59.06
35551;BME280;21655;46.056;13.616;2022-10-31T07:35:23;101088.44;;;27.68;57.29
35551;BME280;21655;46.056;13.616;2022-10-31T07:37:49;101089.13;;;27.48;56.33
35551;BME280;21655;46.056;13.616;2022-10-31T07:40:15;101088.13;;;27.69;56.18
35551;BME280;21655;46.056;13.616;2022-10-31T07:42:42;101082.50;;;28.21;54.83
35551;BME280;21655;46.056;13.616;2022-10-31T07:45:10;101083.38;;;29.08;51.82
35551;BME280;21655;46.056;13.616;2022-10-31T07:47:44;101089.84;;;28.73;52.34
35551;BME280;21655;46.056;13.616;2022-10-31T07:50:11;101082.13;;;28.74;50.88
35551;BME280;21655;46.056;13.616;2022-10-31T07:52:37;101078.66;;;28.62;50.49
35551;BME280;21655;46.056;13.616;2022-10-31T07:55:03;101083.91;;;28.23;50.71
35551;BME280;21655;46.056;13.616;2022-10-31T07:57:29;101081.06;;;28.95;50.09
35551;BME280;21655;46.056;13.616;2022-10-31T07:59:55;101081.69;;;29.22;49.50
35551;BME280;21655;46.056;13.616;2022-10-31T08:02:20;101078.81;;;29.71;48.24
35551;BME280;21655;46.056;13.616;2022-10-31T08:04:46;101078.19;;;30.04;47.02
35551;BME280;21655;46.056;13.616;2022-10-31T08:07:11;101076.75;;;29.97;49.10
35551;BME280;21655;46.056;13.616;2022-10-31T08:09:36;101077.03;;;28.86;49.15
35551;BME280;21655;46.056;13.616;2022-10-31T08:12:02;101075.88;;;30.11;46.24
35551;BME280;21655;46.056;13.616;2022-10-31T08:14:27;101064.44;;;30.01;44.83
35551;BME280;21655;46.056;13.616;2022-10-31T08:16:53;101063.13;;;30.52;42.98
35551;BME280;21655;46.056;13.616;2022-10-31T08:19:19;101068.44;;;30.79;42.83
35551;BME280;21655;46.056;13.616;2022-10-31T08:21:45;101065.50;;;31.32;43.49
35551;BME280;21655;46.056;13.616;2022-10-31T08:24:10;101056.31;;;31.92;41.77
35551;BME280;21655;46.056;13.616;2022-10-31T08:26:35;101067.63;;;32.07;40.53
35551;BME280;21655;46.056;13.616;2022-10-31T08:29:01;101060.31;;;32.43;39.64
35551;BME280;21655;46.056;13.616;2022-10-31T08:31:30;101063.13;;;31.39;40.92
35551;BME280;21655;46.056;13.616;2022-10-31T08:33:55;101064.38;;;30.85;41.24
35551;BME280;21655;46.056;13.616;2022-10-31T08:36:21;101059.25;;;31.53;40.25
35551;BME280;21655;46.056;13.616;2022-10-31T08:38:47;101049.13;;;32.41;38.88
35551;BME280;21655;46.056;13.616;2022-10-31T08:41:13;101058.94;;;33.69;37.89
35551;BME280;21655;46.056;13.616;2022-10-31T08:43:38;101049.13;;;31.33;41.90
35551;BME280;21655;46.056;13.616;2022-10-31T08:46:04;101049.09;;;31.37;41.08
35551;BME280;21655;46.056;13.616;2022-10-31T08:48:29;101049.56;;;31.49;40.84
35551;BME280;21655;46.056;13.616;2022-10-31T08:50:59;101052.59;;;31.30;41.22
35551;BME280;21655;46.056;13.616;2022-10-31T08:53:25;101052.22;;;30.64;41.88
35551;BME280;21655;46.056;13.616;2022-10-31T08:55:54;101048.41;;;31.79;39.40
35551;BME280;21655;46.056;13.616;2022-10-31T08:58:21;101051.47;;;32.58;38.23
35551;BME280;21655;46.056;13.616;2022-10-31T09:00:49;101043.63;;;33.87;36.95
35551;BME280;21655;46.056;13.616;2022-10-31T09:03:22;101052.91;;;33.52;36.87
35551;BME280;21655;46.056;13.616;2022-10-31T09:05:48;101044.00;;;33.67;36.53
35551;BME280;21655;46.056;13.616;2022-10-31T09:08:15;101047.03;;;33.26;36.03
35551;BME280;21655;46.056;13.616;2022-10-31T09:10:40;101046.84;;;33.86;35.60
35551;BME280;21655;46.056;13.616;2022-10-31T09:13:13;101040.53;;;33.84;34.87
35551;BME280;21655;46.056;13.616;2022-10-31T09:15:40;101050.59;;;32.15;37.74
35551;BME280;21655;46.056;13.616;2022-10-31T09:18:07;101047.19;;;33.34;36.48
35551;BME280;21655;46.056;13.616;2022-10-31T09:20:33;101036.84;;;34.64;34.35
35551;BME280;21655;46.056;13.616;2022-10-31T09:23:02;101044.94;;;35.47;32.92
35551;BME280;21655;46.056;13.616;2022-10-31T09:25:28;101038.53;;;35.71;31.73
35551;BME280;21655;46.056;13.616;2022-10-31T09:27:58;101035.34;;;36.51;31.00
35551;BME280;21655;46.056;13.616;2022-10-31T09:30:26;101036.19;;;34.13;34.42
35551;BME280;21655;46.056;13.616;2022-10-31T09:32:56;101036.81;;;35.70;31.54
35551;BME280;21655;46.056;13.616;2022-10-31T09:35:22;101021.97;;;35.85;32.46
35551;BME280;21655;46.056;13.616;2022-10-31T09:37:56;101037.69;;;36.40;31.43
35551;BME280;21655;46.056;13.616;2022-10-31T09:40:27;101039.25;;;37.62;29.88
35551;BME280;21655;46.056;13.616;2022-10-31T09:48:47;101032.09;;;35.74;30.06
35551;BME280;21655;46.056;13.616;2022-10-31T09:51:23;101025.69;;;35.86;31.35
35551;BME280;21655;46.056;13.616;2022-10-31T09:54:06;101034.47;;;36.42;30.25
35551;BME280;21655;46.056;13.616;2022-10-31T09:56:34;101026.66;;;36.51;30.61
35551;BME280;21655;46.056;13.616;2022-10-31T09:59:04;101020.16;;;35.98;31.10
35551;BME280;21655;46.056;13.616;2022-10-31T10:01:47;101019.88;;;35.34;31.29
35551;BME280;21655;46.056;13.616;2022-10-31T10:10:24;101015.22;;;33.36;34.79
35551;BME280;21655;46.056;13.616;2022-10-31T10:18:41;101004.19;;;34.01;33.37
35551;BME280;21655;46.056;13.616;2022-10-31T10:26:59;101003.34;;;32.68;35.05
35551;BME280;21655;46.056;13.616;2022-10-31T10:29:49;100998.06;;;32.57;36.24
35551;BME280;21655;46.056;13.616;2022-10-31T10:32:24;100993.19;;;32.94;35.75
35551;BME280;21655;46.056;13.616;2022-10-31T10:35:11;100993.63;;;32.64;35.84
35551;BME280;21655;46.056;13.616;2022-10-31T10:37:43;100983.84;;;32.47;37.25
35551;BME280;21655;46.056;13.616;2022-10-31T10:40:15;100993.50;;;33.88;35.55
35551;BME280;21655;46.056;13.616;2022-10-31T10:42:45;100989.56;;;34.38;35.82
35551;BME280;21655;46.056;13.616;2022-10-31T10:45:34;100982.72;;;34.97;33.12
35551;BME280;21655;46.056;13.616;2022-10-31T10:48:40;100977.47;;;34.63;34.07
35551;BME280;21655;46.056;13.616;2022-10-31T10:51:20;100970.19;;;34.66;32.89
35551;BME280;21655;46.056;13.616;2022-10-31T10:56:54;100962.38;;;34.17;32.95
35551;BME280;21655;46.056;13.616;2022-10-31T10:59:24;100965.69;;;33.39;32.76
35551;BME280;21655;46.056;13.616;2022-10-31T11:01:51;100961.75;;;33.48;34.90
35551;BME280;21655;46.056;13.616;2022-10-31T11:04:35;100969.31;;;33.89;33.04
35551;BME280;21655;46.056;13.616;2022-10-31T11:07:10;100963.78;;;33.16;34.36
35551;BME280;21655;46.056;13.616;2022-10-31T11:09:36;100955.97;;;33.35;34.79
35551;BME280;21655;46.056;13.616;2022-10-31T11:12:29;100952.88;;;33.90;34.12
35551;BME280;21655;46.056;13.616;2022-10-31T11:14:58;100951.00;;;34.61;32.61
35551;BME280;21655;46.056;13.616;2022-10-31T11:17:37;100951.63;;;34.58;32.85
35551;BME280;21655;46.056;13.616;2022-10-31T11:22:31;100941.53;;;34.34;33.05
35551;BME280;21655;46.056;13.616;2022-10-31T11:24:56;100931.31;;;34.99;32.23
35551;BME280;21655;46.056;13.616;2022-10-31T11:27:24;100942.22;;;33.90;32.90
35551;BME280;21655;46.056;13.616;2022-10-31T11:29:50;100933.16;;;34.73;33.48
35551;BME280;21655;46.056;13.616;2022-10-31T11:32:24;100933.19;;;35.17;32.20
35551;BME280;21655;46.056;13.616;2022-10-31T11:34:55;100928.31;;;34.33;33.17
35551;BME280;21655;46.056;13.616;2022-10-31T11:37:25;100922.88;;;35.24;32.99
35551;BME280;21655;46.056;13.616;2022-10-31T11:39:56;100930.09;;;35.65;32.87
35551;BME280;21655;46.056;13.616;2022-10-31T11:42:27;100920.38;;;35.61;31.43
35551;BME280;21655;46.056;13.616;2022-10-31T11:44:54;100921.28;;;35.40;32.44
35551;BME280;21655;46.056;13.616;2022-10-31T11:47:28;100931.06;;;35.09;32.57
35551;BME280;21655;46.056;13.616;2022-10-31T11:49:56;100912.00;;;34.77;32.70
35551;BME280;21655;46.056;13.616;2022-10-31T11:52:27;100912.38;;;35.06;32.96
35551;BME280;21655;46.056;13.616;2022-10-31T11:57:45;100900.75;;;34.54;34.18
35551;BME280;21655;46.056;13.616;2022-10-31T12:00:36;100907.56;;;34.93;34.35
35551;BME280;21655;46.056;13.616;2022-10-31T12:03:36;100897.59;;;34.77;33.53
35551;BME280;21655;46.056;13.616;2022-10-31T12:06:08;100894.13;;;33.91;34.52
35551;BME280;21655;46.056;13.616;2022-10-31T12:08:38;100894.94;;;34.32;33.80
35551;BME280;21655;46.056;13.616;2022-10-31T12:16:56;100883.09;;;34.06;33.45
35551;BME280;21655;46.056;13.616;2022-10-31T12:25:10;100886.69;;;34.96;33.20
35551;BME280;21655;46.056;13.616;2022-10-31T12:41:57;100858.00;;;34.34;35.81
35551;BME280;21655;46.056;13.616;2022-10-31T12:44:50;100855.69;;;34.22;35.25
35551;BME280;21655;46.056;13.616;2022-10-31T12:58:26;100843.78;;;33.48;39.15
35551;BME280;21655;46.056;13.616;2022-10-31T13:01:02;100855.16;;;34.20;38.92
35551;BME280;21655;46.056;13.616;2022-10-31T13:06:29;100849.78;;;33.78;41.20
35551;BME280;21655;46.056;13.616;2022-10-31T13:08:59;100850.06;;;34.04;40.69
35551;BME280;21655;46.056;13.616;2022-10-31T13:11:47;100843.13;;;33.51;41.58
35551;BME280;21655;46.056;13.616;2022-10-31T13:16:45;100844.47;;;32.49;43.28
35551;BME280;21655;46.056;13.616;2022-10-31T13:19:19;100851.03;;;31.52;45.47
35551;BME280;21655;46.056;13.616;2022-10-31T13:24:23;100834.34;;;32.20;48.48
35551;BME280;21655;46.056;13.616;2022-10-31T13:26:54;100835.19;;;32.20;53.00
35551;BME280;21655;46.056;13.616;2022-10-31T13:29:39;100831.13;;;31.61;54.46
35551;BME280;21655;46.056;13.616;2022-10-31T13:32:07;100836.78;;;32.08;49.94
35551;BME280;21655;46.056;13.616;2022-10-31T13:34:39;100836.59;;;32.23;48.68
35551;BME280;21655;46.056;13.616;2022-10-31T13:45:16;100832.84;;;32.04;48.41
35551;BME280;21655;46.056;13.616;2022-10-31T13:47:43;100828.06;;;31.76;53.16
35551;BME280;21655;46.056;13.616;2022-10-31T13:50:19;100835.88;;;31.00;54.27
35551;BME280;21655;46.056;13.616;2022-10-31T13:52:45;100833.81;;;30.05;58.21
35551;BME280;21655;46.056;13.616;2022-10-31T13:55:43;100831.81;;;30.39;66.45
35551;BME280;21655;46.056;13.616;2022-10-31T13:58:58;100825.22;;;30.44;62.85
35551;BME280;21655;46.056;13.616;2022-10-31T14:01:24;100838.97;;;30.42;64.22
35551;BME280;21655;46.056;13.616;2022-10-31T14:04:14;100825.16;;;30.15;65.95
35551;BME280;21655;46.056;13.616;2022-10-31T14:11:56;100834.50;;;27.99;83.74
35551;BME280;21655;46.056;13.616;2022-10-31T14:14:29;100825.91;;;27.79;88.18
35551;BME280;21655;46.056;13.616;2022-10-31T14:16:56;100833.56;;;27.69;93.95
35551;BME280;21655;46.056;13.616;2022-10-31T14:19:23;100840.44;;;27.83;93.34
35551;BME280;21655;46.056;13.616;2022-10-31T14:21:49;100829.84;;;27.07;99.65
35551;BME280;21655;46.056;13.616;2022-10-31T14:26:55;100830.34;;;26.21;100.00
35551;BME280;21655;46.056;13.616;2022-10-31T14:29:24;100834.28;;;25.89;100.00
35551;BME280;21655;46.056;13.616;2022-10-31T14:46:03;100841.44;;;22.72;100.00
35551;BME280;21655;46.056;13.616;2022-10-31T14:51:10;100848.75;;;21.93;100.00
35551;BME280;21655;46.056;13.616;2022-10-31T14:53:45;100846.09;;;21.39;100.00
35551;BME280;21655;46.056;13.616;2022-10-31T14:56:12;100847.28;;;21.31;100.00
35551;BME280;21655;46.056;13.616;2022-10-31T15:01:04;100859.28;;;21.09;100.00
35551;BME280;21655;46.056;13.616;2022-10-31T15:03:36;100857.97;;;21.11;100.00
35551;BME280;21655;46.056;13.616;2022-10-31T15:06:11;100856.16;;;20.99;100.00